Impacts METAR Board
IDs:

KGTU - Georgetown Muni, TX, US

Updated at: 1200 UTC 20 Oct 2021
Potential Impact None Slight Moderate High
Time 20/00Z 20/01Z 20/02Z 20/03Z 20/04Z 20/05Z 20/06Z 20/07Z 20/08Z 20/09Z 20/10Z 20/11Z 20/12Z
Temp76 73 72 71 70 69 68 67 66 67 68 68 68
Dewpt59 59 60 60 61 62 62 62 63 64 65 65 65
Altim30.01 30.02 30.03 30.04 30.07 30.08 30.09 30.08 30.09 30.09 30.09 30.10 30.10
VIS10 10 10 10 10 10 10 10 10 10 10 10 10
CIG-- -- -- -- -- -- -- -- 13 9 9 9 32
CoverCLRCLRCLRCLRCLRCLRCLRFEWBKNOVCOVCOVCOVC
FltCatVFRVFRVFRVFRVFRVFRVFRVFRMVFRIFRIFRIFRVFR
WX--------------------------
WDir1401301501401701601501501601501500140
WSpd5 4 5 4 5 6 5 5 4 5 3 0 3
WGst-- -- -- -- -- -- -- -- -- -- -- -- --
Raw hourly METARs
KGTU 192356Z 14005KT 10SM CLR 24/15 A3001 RMK AO2 SLP159 T02440150 10272 20244 53001
KGTU 200056Z 13004KT 10SM CLR 23/15 A3002 RMK AO2 SLP163 T02280150
KGTU 200156Z 15005KT 10SM CLR 22/16 A3003 RMK AO2 SLP167 T02220156
KGTU 200256Z 14004KT 10SM CLR 22/16 A3004 RMK AO2 SLP169 T02170156 53011
KGTU 200356Z AUTO 17005KT 10SM CLR 21/16 A3007 RMK AO2 SLP175 T02110161
KGTU 200456Z AUTO 16006KT 10SM CLR 21/17 A3008 RMK AO2 SLP182 T02060167
KGTU 200556Z AUTO 15005KT 10SM CLR 20/17 A3009 RMK AO2 SLP183 T02000167 10244 20200 402720133 51014
KGTU 200656Z AUTO 15005KT 10SM FEW013 19/17 A3008 RMK AO2 SLP182 T01940167
KGTU 200756Z AUTO 16004KT 10SM BKN013 19/17 A3009 RMK AO2 SLP185 T01890172
KGTU 200856Z AUTO 15005KT 10SM OVC009 19/18 A3009 RMK AO2 SLP184 T01940178 53001
KGTU 200956Z AUTO 15003KT 10SM OVC009 20/18 A3009 RMK AO2 SLP183 T02000183
KGTU 201056Z AUTO 00000KT 10SM OVC009 20/18 A3010 RMK AO2 SLP188 T02000183
KGTU 201156Z 14003KT 10SM OVC032 20/18 A3010 RMK AO2 SLP189 T02000183 10200 20189 50004